sensor_id;sensor_type;location;lat;lon;timestamp;temperature;humidity
76878;DHT22;65843;50.692;12.844;2023-03-07T00:00:23;19.10;59.30
76878;DHT22;65843;50.692;12.844;2023-03-07T00:01:25;19.10;59.30
76878;DHT22;65843;50.692;12.844;2023-03-07T00:02:26;19.10;59.80
76878;DHT22;65843;50.692;12.844;2023-03-07T00:03:27;19.10;59.70
76878;DHT22;65843;50.692;12.844;2023-03-07T00:04:28;19.10;59.80
76878;DHT22;65843;50.692;12.844;2023-03-07T00:05:29;19.10;59.90
76878;DHT22;65843;50.692;12.844;2023-03-07T00:06:31;19.10;60.00
76878;DHT22;65843;50.692;12.844;2023-03-07T00:07:32;19.20;60.00
76878;DHT22;65843;50.692;12.844;2023-03-07T00:08:33;19.10;60.00
76878;DHT22;65843;50.692;12.844;2023-03-07T00:09:34;19.20;60.00
76878;DHT22;65843;50.692;12.844;2023-03-07T00:10:35;19.20;60.00
76878;DHT22;65843;50.692;12.844;2023-03-07T00:11:36;19.20;59.80
76878;DHT22;65843;50.692;12.844;2023-03-07T00:12:38;19.20;59.60
76878;DHT22;65843;50.692;12.844;2023-03-07T00:13:39;19.20;59.60
76878;DHT22;65843;50.692;12.844;2023-03-07T00:14:40;19.20;59.70
76878;DHT22;65843;50.692;12.844;2023-03-07T00:15:41;19.20;59.90
76878;DHT22;65843;50.692;12.844;2023-03-07T00:16:41;19.20;59.90
76878;DHT22;65843;50.692;12.844;2023-03-07T00:17:42;19.20;60.00
76878;DHT22;65843;50.692;12.844;2023-03-07T00:18:43;19.20;59.90
76878;DHT22;65843;50.692;12.844;2023-03-07T00:19:44;19.20;59.90
76878;DHT22;65843;50.692;12.844;2023-03-07T00:20:54;19.20;60.00
76878;DHT22;65843;50.692;12.844;2023-03-07T00:21:55;19.20;59.70
76878;DHT22;65843;50.692;12.844;2023-03-07T00:22:56;19.20;59.50
76878;DHT22;65843;50.692;12.844;2023-03-07T00:23:57;19.20;59.70
76878;DHT22;65843;50.692;12.844;2023-03-07T00:24:58;19.20;60.20
76878;DHT22;65843;50.692;12.844;2023-03-07T00:26:00;19.20;60.20
76878;DHT22;65843;50.692;12.844;2023-03-07T00:27:02;19.20;60.00
76878;DHT22;65843;50.692;12.844;2023-03-07T00:28:03;19.20;60.00
76878;DHT22;65843;50.692;12.844;2023-03-07T00:29:05;19.20;59.90
76878;DHT22;65843;50.692;12.844;2023-03-07T00:30:07;19.20;59.80
76878;DHT22;65843;50.692;12.844;2023-03-07T00:31:09;19.20;60.10
76878;DHT22;65843;50.692;12.844;2023-03-07T00:32:10;19.20;59.90
76878;DHT22;65843;50.692;12.844;2023-03-07T00:33:11;19.20;60.10
76878;DHT22;65843;50.692;12.844;2023-03-07T00:34:12;19.20;60.00
76878;DHT22;65843;50.692;12.844;2023-03-07T00:35:13;19.20;60.10
76878;DHT22;65843;50.692;12.844;2023-03-07T00:36:15;19.20;60.00
76878;DHT22;65843;50.692;12.844;2023-03-07T00:37:17;19.20;60.00
76878;DHT22;65843;50.692;12.844;2023-03-07T00:38:17;19.20;60.10
76878;DHT22;65843;50.692;12.844;2023-03-07T00:39:18;19.20;60.00
76878;DHT22;65843;50.692;12.844;2023-03-07T00:40:19;19.20;59.90
76878;DHT22;65843;50.692;12.844;2023-03-07T00:41:21;19.20;60.20
76878;DHT22;65843;50.692;12.844;2023-03-07T00:42:22;19.20;60.10
76878;DHT22;65843;50.692;12.844;2023-03-07T00:43:23;19.20;60.20
76878;DHT22;65843;50.692;12.844;2023-03-07T00:44:24;19.20;60.20
76878;DHT22;65843;50.692;12.844;2023-03-07T00:45:29;19.20;60.10
76878;DHT22;65843;50.692;12.844;2023-03-07T00:46:30;19.20;60.20
76878;DHT22;65843;50.692;12.844;2023-03-07T00:47:31;19.20;60.20
76878;DHT22;65843;50.692;12.844;2023-03-07T00:48:32;19.20;60.30
76878;DHT22;65843;50.692;12.844;2023-03-07T00:49:34;19.20;60.20
76878;DHT22;65843;50.692;12.844;2023-03-07T00:50:34;19.20;60.30
76878;DHT22;65843;50.692;12.844;2023-03-07T00:51:35;19.20;60.50
76878;DHT22;65843;50.692;12.844;2023-03-07T00:52:36;19.20;60.30
76878;DHT22;65843;50.692;12.844;2023-03-07T00:53:37;19.20;60.30
76878;DHT22;65843;50.692;12.844;2023-03-07T00:54:39;19.20;60.40
76878;DHT22;65843;50.692;12.844;2023-03-07T00:55:40;19.20;60.30
76878;DHT22;65843;50.692;12.844;2023-03-07T00:56:41;19.20;60.20
76878;DHT22;65843;50.692;12.844;2023-03-07T00:57:42;19.20;60.30
76878;DHT22;65843;50.692;12.844;2023-03-07T00:58:43;19.20;60.40
76878;DHT22;65843;50.692;12.844;2023-03-07T00:59:44;19.20;60.40
76878;DHT22;65843;50.692;12.844;2023-03-07T01:00:45;19.30;60.50
76878;DHT22;65843;50.692;12.844;2023-03-07T01:01:46;19.20;60.40
76878;DHT22;65843;50.692;12.844;2023-03-07T01:02:49;19.20;60.40
76878;DHT22;65843;50.692;12.844;2023-03-07T01:03:50;19.20;60.40
76878;DHT22;65843;50.692;12.844;2023-03-07T01:04:54;19.20;60.30
76878;DHT22;65843;50.692;12.844;2023-03-07T01:05:55;19.20;60.70
76878;DHT22;65843;50.692;12.844;2023-03-07T01:06:56;19.20;60.50
76878;DHT22;65843;50.692;12.844;2023-03-07T01:07:56;19.20;60.60
76878;DHT22;65843;50.692;12.844;2023-03-07T01:08:58;19.30;60.50
76878;DHT22;65843;50.692;12.844;2023-03-07T01:09:59;19.30;60.50
76878;DHT22;65843;50.692;12.844;2023-03-07T01:11:01;19.30;60.60
76878;DHT22;65843;50.692;12.844;2023-03-07T01:12:02;19.30;60.60
76878;DHT22;65843;50.692;12.844;2023-03-07T01:13:06;19.30;60.70
76878;DHT22;65843;50.692;12.844;2023-03-07T01:14:08;19.30;60.70
76878;DHT22;65843;50.692;12.844;2023-03-07T01:15:09;19.30;60.50
76878;DHT22;65843;50.692;12.844;2023-03-07T01:16:12;19.30;60.50
76878;DHT22;65843;50.692;12.844;2023-03-07T01:17:14;19.30;60.50
76878;DHT22;65843;50.692;12.844;2023-03-07T01:18:14;19.30;60.40
76878;DHT22;65843;50.692;12.844;2023-03-07T01:19:15;19.30;60.50
76878;DHT22;65843;50.692;12.844;2023-03-07T01:20:16;19.30;60.50
76878;DHT22;65843;50.692;12.844;2023-03-07T01:21:19;19.30;60.50
76878;DHT22;65843;50.692;12.844;2023-03-07T01:22:20;19.30;60.50
76878;DHT22;65843;50.692;12.844;2023-03-07T01:23:21;19.30;60.50
76878;DHT22;65843;50.692;12.844;2023-03-07T01:24:21;19.30;60.50
76878;DHT22;65843;50.692;12.844;2023-03-07T01:25:22;19.30;60.60
76878;DHT22;65843;50.692;12.844;2023-03-07T01:26:24;19.30;60.40
76878;DHT22;65843;50.692;12.844;2023-03-07T01:27:25;19.30;60.70
76878;DHT22;65843;50.692;12.844;2023-03-07T01:28:26;19.30;60.70
76878;DHT22;65843;50.692;12.844;2023-03-07T01:29:27;19.30;60.60
76878;DHT22;65843;50.692;12.844;2023-03-07T01:30:28;19.30;60.50
76878;DHT22;65843;50.692;12.844;2023-03-07T01:31:29;19.30;60.30
76878;DHT22;65843;50.692;12.844;2023-03-07T01:32:32;19.30;60.50
76878;DHT22;65843;50.692;12.844;2023-03-07T01:33:33;19.30;60.40
76878;DHT22;65843;50.692;12.844;2023-03-07T01:34:34;19.30;60.70
76878;DHT22;65843;50.692;12.844;2023-03-07T01:35:36;19.30;60.50
76878;DHT22;65843;50.692;12.844;2023-03-07T01:36:37;19.30;60.10
76878;DHT22;65843;50.692;12.844;2023-03-07T01:37:39;19.30;60.40
76878;DHT22;65843;50.692;12.844;2023-03-07T01:38:39;19.30;60.60
76878;DHT22;65843;50.692;12.844;2023-03-07T01:39:40;19.30;60.60
76878;DHT22;65843;50.692;12.844;2023-03-07T01:40:42;19.30;60.50
76878;DHT22;65843;50.692;12.844;2023-03-07T01:41:43;19.30;60.60
76878;DHT22;65843;50.692;12.844;2023-03-07T01:42:44;19.30;60.70
76878;DHT22;65843;50.692;12.844;2023-03-07T01:43:46;19.30;60.40
76878;DHT22;65843;50.692;12.844;2023-03-07T01:45:00;19.30;60.50
76878;DHT22;65843;50.692;12.844;2023-03-07T01:47:17;19.30;60.50
76878;DHT22;65843;50.692;12.844;2023-03-07T01:48:18;19.30;60.40
76878;DHT22;65843;50.692;12.844;2023-03-07T01:50:26;19.30;60.30
76878;DHT22;65843;50.692;12.844;2023-03-07T01:51:27;19.30;60.30
76878;DHT22;65843;50.692;12.844;2023-03-07T01:52:29;19.30;60.30
76878;DHT22;65843;50.692;12.844;2023-03-07T01:53:31;19.30;60.20
76878;DHT22;65843;50.692;12.844;2023-03-07T01:54:33;19.30;60.50
76878;DHT22;65843;50.692;12.844;2023-03-07T01:55:37;19.30;60.30
76878;DHT22;65843;50.692;12.844;2023-03-07T01:56:39;19.30;60.40
76878;DHT22;65843;50.692;12.844;2023-03-07T01:57:40;19.30;60.50
76878;DHT22;65843;50.692;12.844;2023-03-07T01:58:43;19.30;60.50
76878;DHT22;65843;50.692;12.844;2023-03-07T01:59:45;19.30;60.40
76878;DHT22;65843;50.692;12.844;2023-03-07T02:00:46;19.30;60.50
76878;DHT22;65843;50.692;12.844;2023-03-07T02:01:47;19.30;60.50
76878;DHT22;65843;50.692;12.844;2023-03-07T02:02:50;19.30;60.40
76878;DHT22;65843;50.692;12.844;2023-03-07T02:05:57;19.30;60.50
76878;DHT22;65843;50.692;12.844;2023-03-07T02:06:59;19.30;60.60
76878;DHT22;65843;50.692;12.844;2023-03-07T02:08:00;19.30;60.70
76878;DHT22;65843;50.692;12.844;2023-03-07T02:09:02;19.30;60.70
76878;DHT22;65843;50.692;12.844;2023-03-07T02:10:05;19.30;60.60
76878;DHT22;65843;50.692;12.844;2023-03-07T02:11:06;19.30;60.60
76878;DHT22;65843;50.692;12.844;2023-03-07T02:12:08;19.30;60.50
76878;DHT22;65843;50.692;12.844;2023-03-07T02:13:09;19.30;60.80
76878;DHT22;65843;50.692;12.844;2023-03-07T02:14:10;19.40;60.90
76878;DHT22;65843;50.692;12.844;2023-03-07T02:15:12;19.30;60.70
76878;DHT22;65843;50.692;12.844;2023-03-07T02:16:13;19.30;60.60
76878;DHT22;65843;50.692;12.844;2023-03-07T02:17:14;19.30;60.70
76878;DHT22;65843;50.692;12.844;2023-03-07T02:18:16;19.30;60.50
76878;DHT22;65843;50.692;12.844;2023-03-07T02:19:21;19.30;60.60
76878;DHT22;65843;50.692;12.844;2023-03-07T02:21:40;19.30;60.70
76878;DHT22;65843;50.692;12.844;2023-03-07T02:22:43;19.40;60.60
76878;DHT22;65843;50.692;12.844;2023-03-07T02:25:09;19.30;60.70
76878;DHT22;65843;50.692;12.844;2023-03-07T02:26:16;19.40;60.70
76878;DHT22;65843;50.692;12.844;2023-03-07T02:27:19;19.40;60.70
76878;DHT22;65843;50.692;12.844;2023-03-07T02:28:20;19.40;60.40
76878;DHT22;65843;50.692;12.844;2023-03-07T02:29:21;19.40;60.30
76878;DHT22;65843;50.692;12.844;2023-03-07T02:30:22;19.40;60.80
76878;DHT22;65843;50.692;12.844;2023-03-07T02:31:23;19.40;60.90
76878;DHT22;65843;50.692;12.844;2023-03-07T02:32:24;19.40;60.80
76878;DHT22;65843;50.692;12.844;2023-03-07T02:33:25;19.40;61.00
76878;DHT22;65843;50.692;12.844;2023-03-07T02:34:27;19.40;61.00
76878;DHT22;65843;50.692;12.844;2023-03-07T02:35:28;19.40;60.70
76878;DHT22;65843;50.692;12.844;2023-03-07T02:36:31;19.40;60.70
76878;DHT22;65843;50.692;12.844;2023-03-07T02:37:34;19.40;60.90
76878;DHT22;65843;50.692;12.844;2023-03-07T02:38:37;19.40;60.80
76878;DHT22;65843;50.692;12.844;2023-03-07T02:39:43;19.40;60.70
76878;DHT22;65843;50.692;12.844;2023-03-07T02:40:44;19.40;60.90
76878;DHT22;65843;50.692;12.844;2023-03-07T02:41:46;19.40;60.80
76878;DHT22;65843;50.692;12.844;2023-03-07T02:42:47;19.40;60.70
76878;DHT22;65843;50.692;12.844;2023-03-07T02:43:48;19.40;60.90
76878;DHT22;65843;50.692;12.844;2023-03-07T02:44:56;19.40;60.90
76878;DHT22;65843;50.692;12.844;2023-03-07T02:45:57;19.40;60.80
76878;DHT22;65843;50.692;12.844;2023-03-07T02:46:58;19.40;60.80
76878;DHT22;65843;50.692;12.844;2023-03-07T02:47:59;19.40;60.90
76878;DHT22;65843;50.692;12.844;2023-03-07T02:49:00;19.40;60.60
76878;DHT22;65843;50.692;12.844;2023-03-07T02:50:01;19.40;60.80
76878;DHT22;65843;50.692;12.844;2023-03-07T02:51:02;19.40;60.90
76878;DHT22;65843;50.692;12.844;2023-03-07T02:52:03;19.40;60.90
76878;DHT22;65843;50.692;12.844;2023-03-07T02:53:04;19.40;60.90
76878;DHT22;65843;50.692;12.844;2023-03-07T02:54:05;19.40;60.90
76878;DHT22;65843;50.692;12.844;2023-03-07T02:55:06;19.40;60.80
76878;DHT22;65843;50.692;12.844;2023-03-07T02:56:07;19.40;60.90
76878;DHT22;65843;50.692;12.844;2023-03-07T02:57:08;19.40;61.00
76878;DHT22;65843;50.692;12.844;2023-03-07T02:58:10;19.40;60.90
76878;DHT22;65843;50.692;12.844;2023-03-07T02:59:11;19.40;61.00
76878;DHT22;65843;50.692;12.844;2023-03-07T03:00:12;19.40;61.10
76878;DHT22;65843;50.692;12.844;2023-03-07T03:01:13;19.40;61.20
76878;DHT22;65843;50.692;12.844;2023-03-07T03:02:14;19.40;61.00
76878;DHT22;65843;50.692;12.844;2023-03-07T03:03:15;19.40;61.10
76878;DHT22;65843;50.692;12.844;2023-03-07T03:04:16;19.40;61.10
76878;DHT22;65843;50.692;12.844;2023-03-07T03:05:17;19.40;61.00
76878;DHT22;65843;50.692;12.844;2023-03-07T03:06:18;19.40;61.00
76878;DHT22;65843;50.692;12.844;2023-03-07T03:07:19;19.40;61.00
76878;DHT22;65843;50.692;12.844;2023-03-07T03:08:20;19.40;61.10
76878;DHT22;65843;50.692;12.844;2023-03-07T03:09:21;19.40;61.10
76878;DHT22;65843;50.692;12.844;2023-03-07T03:10:22;19.40;61.10
76878;DHT22;65843;50.692;12.844;2023-03-07T03:11:23;19.40;61.10
76878;DHT22;65843;50.692;12.844;2023-03-07T03:12:23;19.40;61.10
76878;DHT22;65843;50.692;12.844;2023-03-07T03:13:24;19.40;61.20
76878;DHT22;65843;50.692;12.844;2023-03-07T03:14:26;19.40;61.20
76878;DHT22;65843;50.692;12.844;2023-03-07T03:15:27;19.40;61.20
76878;DHT22;65843;50.692;12.844;2023-03-07T03:16:28;19.40;61.40
76878;DHT22;65843;50.692;12.844;2023-03-07T03:17:28;19.40;61.30
76878;DHT22;65843;50.692;12.844;2023-03-07T03:18:30;19.40;61.20
76878;DHT22;65843;50.692;12.844;2023-03-07T03:19:31;19.40;61.30
76878;DHT22;65843;50.692;12.844;2023-03-07T03:20:32;19.50;61.20
76878;DHT22;65843;50.692;12.844;2023-03-07T03:21:32;19.50;61.00
76878;DHT22;65843;50.692;12.844;2023-03-07T03:22:33;19.50;61.10
76878;DHT22;65843;50.692;12.844;2023-03-07T03:23:34;19.50;61.20
76878;DHT22;65843;50.692;12.844;2023-03-07T03:24:39;19.50;61.20
76878;DHT22;65843;50.692;12.844;2023-03-07T03:25:41;19.50;61.20
76878;DHT22;65843;50.692;12.844;2023-03-07T03:26:42;19.50;61.20
76878;DHT22;65843;50.692;12.844;2023-03-07T03:27:43;19.40;61.20
76878;DHT22;65843;50.692;12.844;2023-03-07T03:28:44;19.40;61.20
76878;DHT22;65843;50.692;12.844;2023-03-07T03:29:45;19.40;61.30
76878;DHT22;65843;50.692;12.844;2023-03-07T03:30:55;19.50;61.00
76878;DHT22;65843;50.692;12.844;2023-03-07T03:31:56;19.50;60.80
76878;DHT22;65843;50.692;12.844;2023-03-07T03:32:57;19.50;61.20
76878;DHT22;65843;50.692;12.844;2023-03-07T03:33:58;19.50;61.20
76878;DHT22;65843;50.692;12.844;2023-03-07T03:34:59;19.50;61.10
76878;DHT22;65843;50.692;12.844;2023-03-07T03:36:03;19.50;61.30
76878;DHT22;65843;50.692;12.844;2023-03-07T03:37:05;19.50;61.50
76878;DHT22;65843;50.692;12.844;2023-03-07T03:38:07;19.50;61.10
76878;DHT22;65843;50.692;12.844;2023-03-07T03:39:09;19.50;61.40
76878;DHT22;65843;50.692;12.844;2023-03-07T03:40:10;19.50;61.50
76878;DHT22;65843;50.692;12.844;2023-03-07T03:41:14;19.50;61.10
76878;DHT22;65843;50.692;12.844;2023-03-07T03:42:17;19.50;61.40
76878;DHT22;65843;50.692;12.844;2023-03-07T03:43:18;19.50;61.40
76878;DHT22;65843;50.692;12.844;2023-03-07T03:44:19;19.50;61.40
76878;DHT22;65843;50.692;12.844;2023-03-07T03:45:20;19.50;61.40
76878;DHT22;65843;50.692;12.844;2023-03-07T03:46:21;19.50;61.50
76878;DHT22;65843;50.692;12.844;2023-03-07T03:47:22;19.40;61.30
76878;DHT22;65843;50.692;12.844;2023-03-07T03:48:23;19.40;61.50
76878;DHT22;65843;50.692;12.844;2023-03-07T03:49:24;19.40;61.40
76878;DHT22;65843;50.692;12.844;2023-03-07T03:50:25;19.40;61.30
76878;DHT22;65843;50.692;12.844;2023-03-07T03:51:26;19.40;61.30
76878;DHT22;65843;50.692;12.844;2023-03-07T03:52:27;19.40;61.40
76878;DHT22;65843;50.692;12.844;2023-03-07T03:53:28;19.40;61.30
76878;DHT22;65843;50.692;12.844;2023-03-07T03:54:29;19.40;61.30
76878;DHT22;65843;50.692;12.844;2023-03-07T03:55:30;19.40;61.20
76878;DHT22;65843;50.692;12.844;2023-03-07T03:56:31;19.40;61.30
76878;DHT22;65843;50.692;12.844;2023-03-07T03:57:32;19.40;61.50
76878;DHT22;65843;50.692;12.844;2023-03-07T03:58:33;19.40;61.20
76878;DHT22;65843;50.692;12.844;2023-03-07T03:59:34;19.40;61.40
76878;DHT22;65843;50.692;12.844;2023-03-07T04:00:35;19.40;61.30
76878;DHT22;65843;50.692;12.844;2023-03-07T04:01:36;19.40;61.70
76878;DHT22;65843;50.692;12.844;2023-03-07T04:02:37;19.40;61.60
76878;DHT22;65843;50.692;12.844;2023-03-07T04:03:41;19.50;61.10
76878;DHT22;65843;50.692;12.844;2023-03-07T04:04:43;19.50;60.10
76878;DHT22;65843;50.692;12.844;2023-03-07T04:05:44;19.50;60.40
76878;DHT22;65843;50.692;12.844;2023-03-07T04:06:44;19.50;60.50
76878;DHT22;65843;50.692;12.844;2023-03-07T04:07:45;19.50;60.40
76878;DHT22;65843;50.692;12.844;2023-03-07T04:08:46;19.50;60.00
76878;DHT22;65843;50.692;12.844;2023-03-07T04:09:47;19.50;59.90
76878;DHT22;65843;50.692;12.844;2023-03-07T04:10:48;19.50;59.90
76878;DHT22;65843;50.692;12.844;2023-03-07T04:11:49;19.50;60.00
76878;DHT22;65843;50.692;12.844;2023-03-07T04:12:50;19.50;59.70
76878;DHT22;65843;50.692;12.844;2023-03-07T04:13:51;19.50;59.90
76878;DHT22;65843;50.692;12.844;2023-03-07T04:14:52;19.50;59.80
76878;DHT22;65843;50.692;12.844;2023-03-07T04:15:53;19.50;59.70
76878;DHT22;65843;50.692;12.844;2023-03-07T04:16:54;19.40;59.70
76878;DHT22;65843;50.692;12.844;2023-03-07T04:17:55;19.40;59.60
76878;DHT22;65843;50.692;12.844;2023-03-07T04:18:56;19.40;59.50
76878;DHT22;65843;50.692;12.844;2023-03-07T04:19:57;19.40;59.60
76878;DHT22;65843;50.692;12.844;2023-03-07T04:20:59;19.40;59.60
76878;DHT22;65843;50.692;12.844;2023-03-07T04:22:00;19.40;59.30
76878;DHT22;65843;50.692;12.844;2023-03-07T04:23:01;19.40;59.40
76878;DHT22;65843;50.692;12.844;2023-03-07T04:24:02;19.30;59.40
76878;DHT22;65843;50.692;12.844;2023-03-07T04:25:03;19.30;59.40
76878;DHT22;65843;50.692;12.844;2023-03-07T04:26:05;19.30;59.30
76878;DHT22;65843;50.692;12.844;2023-03-07T04:27:06;19.30;59.60
76878;DHT22;65843;50.692;12.844;2023-03-07T04:28:07;19.30;59.30
76878;DHT22;65843;50.692;12.844;2023-03-07T04:29:08;19.30;59.50
76878;DHT22;65843;50.692;12.844;2023-03-07T04:30:09;19.30;59.40
76878;DHT22;65843;50.692;12.844;2023-03-07T04:31:13;19.30;59.50
76878;DHT22;65843;50.692;12.844;2023-03-07T04:32:14;19.30;59.40
76878;DHT22;65843;50.692;12.844;2023-03-07T04:33:15;19.30;59.40
76878;DHT22;65843;50.692;12.844;2023-03-07T04:34:16;19.30;59.30
76878;DHT22;65843;50.692;12.844;2023-03-07T04:35:17;19.30;59.30
76878;DHT22;65843;50.692;12.844;2023-03-07T04:36:18;19.30;59.30
76878;DHT22;65843;50.692;12.844;2023-03-07T04:37:19;19.30;59.20
76878;DHT22;65843;50.692;12.844;2023-03-07T04:38:20;19.30;59.20
76878;DHT22;65843;50.692;12.844;2023-03-07T04:39:21;19.20;59.20
76878;DHT22;65843;50.692;12.844;2023-03-07T04:40:22;19.20;59.30
76878;DHT22;65843;50.692;12.844;2023-03-07T04:41:23;19.20;59.30
76878;DHT22;65843;50.692;12.844;2023-03-07T04:42:26;19.20;59.10
76878;DHT22;65843;50.692;12.844;2023-03-07T04:43:27;19.20;59.20
76878;DHT22;65843;50.692;12.844;2023-03-07T04:44:29;19.20;59.10
76878;DHT22;65843;50.692;12.844;2023-03-07T04:45:31;19.20;59.10
76878;DHT22;65843;50.692;12.844;2023-03-07T04:46:32;19.20;59.20
76878;DHT22;65843;50.692;12.844;2023-03-07T04:47:33;19.20;59.20
76878;DHT22;65843;50.692;12.844;2023-03-07T04:48:34;19.20;59.20
76878;DHT22;65843;50.692;12.844;2023-03-07T04:49:38;19.20;59.10
76878;DHT22;65843;50.692;12.844;2023-03-07T04:50:39;19.10;59.10
76878;DHT22;65843;50.692;12.844;2023-03-07T04:51:39;19.20;59.10
76878;DHT22;65843;50.692;12.844;2023-03-07T04:52:40;19.20;59.00
76878;DHT22;65843;50.692;12.844;2023-03-07T04:53:41;19.20;59.10
76878;DHT22;65843;50.692;12.844;2023-03-07T04:54:42;19.10;59.10
76878;DHT22;65843;50.692;12.844;2023-03-07T04:55:44;19.10;59.10
76878;DHT22;65843;50.692;12.844;2023-03-07T04:56:45;19.10;59.00
76878;DHT22;65843;50.692;12.844;2023-03-07T04:57:46;19.10;59.00
76878;DHT22;65843;50.692;12.844;2023-03-07T04:58:47;19.10;59.00
76878;DHT22;65843;50.692;12.844;2023-03-07T04:59:48;19.10;59.00
76878;DHT22;65843;50.692;12.844;2023-03-07T05:00:49;19.10;59.00
76878;DHT22;65843;50.692;12.844;2023-03-07T05:01:51;19.10;59.00
76878;DHT22;65843;50.692;12.844;2023-03-07T05:02:55;19.10;59.00
76878;DHT22;65843;50.692;12.844;2023-03-07T05:03:56;19.10;59.10
76878;DHT22;65843;50.692;12.844;2023-03-07T05:04:57;19.10;59.20
76878;DHT22;65843;50.692;12.844;2023-03-07T05:06:01;19.10;59.10
76878;DHT22;65843;50.692;12.844;2023-03-07T05:07:03;19.10;59.00
76878;DHT22;65843;50.692;12.844;2023-03-07T05:08:04;19.10;59.00
76878;DHT22;65843;50.692;12.844;2023-03-07T05:09:05;19.10;59.00
76878;DHT22;65843;50.692;12.844;2023-03-07T05:10:06;19.10;59.70
76878;DHT22;65843;50.692;12.844;2023-03-07T05:11:07;19.10;59.60
76878;DHT22;65843;50.692;12.844;2023-03-07T05:12:08;19.10;59.40
76878;DHT22;65843;50.692;12.844;2023-03-07T05:13:09;19.10;59.20
76878;DHT22;65843;50.692;12.844;2023-03-07T05:14:10;19.10;59.30
76878;DHT22;65843;50.692;12.844;2023-03-07T05:15:11;19.10;59.00
76878;DHT22;65843;50.692;12.844;2023-03-07T05:16:12;19.10;59.10
76878;DHT22;65843;50.692;12.844;2023-03-07T05:17:13;19.10;58.90
76878;DHT22;65843;50.692;12.844;2023-03-07T05:18:15;19.10;59.00
76878;DHT22;65843;50.692;12.844;2023-03-07T05:19:16;19.10;59.00
76878;DHT22;65843;50.692;12.844;2023-03-07T05:20:17;19.10;59.00
76878;DHT22;65843;50.692;12.844;2023-03-07T05:21:18;19.00;58.90
76878;DHT22;65843;50.692;12.844;2023-03-07T05:22:19;19.00;58.90
76878;DHT22;65843;50.692;12.844;2023-03-07T05:23:20;19.00;58.90
76878;DHT22;65843;50.692;12.844;2023-03-07T05:24:21;19.00;58.90
76878;DHT22;65843;50.692;12.844;2023-03-07T05:25:22;19.00;59.00
76878;DHT22;65843;50.692;12.844;2023-03-07T05:26:23;19.00;59.00
76878;DHT22;65843;50.692;12.844;2023-03-07T05:27:24;19.00;59.10
76878;DHT22;65843;50.692;12.844;2023-03-07T05:28:25;19.00;59.00
76878;DHT22;65843;50.692;12.844;2023-03-07T05:29:26;19.00;59.00
76878;DHT22;65843;50.692;12.844;2023-03-07T05:30:27;19.00;59.00
76878;DHT22;65843;50.692;12.844;2023-03-07T05:31:28;19.00;59.00
76878;DHT22;65843;50.692;12.844;2023-03-07T05:32:29;19.00;58.90
76878;DHT22;65843;50.692;12.844;2023-03-07T05:33:30;19.00;59.00
76878;DHT22;65843;50.692;12.844;2023-03-07T05:34:31;19.00;59.00
76878;DHT22;65843;50.692;12.844;2023-03-07T05:35:32;19.00;58.90
76878;DHT22;65843;50.692;12.844;2023-03-07T05:36:34;19.00;59.00
76878;DHT22;65843;50.692;12.844;2023-03-07T05:37:35;19.00;59.00
76878;DHT22;65843;50.692;12.844;2023-03-07T05:38:36;19.00;58.90
76878;DHT22;65843;50.692;12.844;2023-03-07T05:39:37;18.90;58.80
76878;DHT22;65843;50.692;12.844;2023-03-07T05:40:38;18.90;58.70
76878;DHT22;65843;50.692;12.844;2023-03-07T05:41:40;18.90;58.70
76878;DHT22;65843;50.692;12.844;2023-03-07T05:42:41;18.90;58.80
76878;DHT22;65843;50.692;12.844;2023-03-07T05:43:42;18.90;58.70
76878;DHT22;65843;50.692;12.844;2023-03-07T05:44:43;18.90;58.70
76878;DHT22;65843;50.692;12.844;2023-03-07T05:45:44;18.90;58.60
76878;DHT22;65843;50.692;12.844;2023-03-07T05:46:45;18.90;58.70
76878;DHT22;65843;50.692;12.844;2023-03-07T05:47:46;18.90;58.50
76878;DHT22;65843;50.692;12.844;2023-03-07T05:48:55;18.90;58.40
76878;DHT22;65843;50.692;12.844;2023-03-07T05:49:56;18.90;58.40
76878;DHT22;65843;50.692;12.844;2023-03-07T05:51:00;18.90;58.50
76878;DHT22;65843;50.692;12.844;2023-03-07T05:52:00;18.90;58.50
76878;DHT22;65843;50.692;12.844;2023-03-07T05:53:01;18.90;58.40
76878;DHT22;65843;50.692;12.844;2023-03-07T05:54:03;18.90;58.30
76878;DHT22;65843;50.692;12.844;2023-03-07T05:55:04;18.90;58.30
76878;DHT22;65843;50.692;12.844;2023-03-07T05:56:06;18.90;58.30
76878;DHT22;65843;50.692;12.844;2023-03-07T05:57:07;18.90;58.40
76878;DHT22;65843;50.692;12.844;2023-03-07T05:58:08;18.90;58.30
76878;DHT22;65843;50.692;12.844;2023-03-07T05:59:08;18.90;58.30
76878;DHT22;65843;50.692;12.844;2023-03-07T06:00:12;18.90;58.30
76878;DHT22;65843;50.692;12.844;2023-03-07T06:01:13;18.90;58.30
76878;DHT22;65843;50.692;12.844;2023-03-07T06:02:14;18.90;58.20
76878;DHT22;65843;50.692;12.844;2023-03-07T06:03:15;18.90;58.20
76878;DHT22;65843;50.692;12.844;2023-03-07T06:04:16;18.90;58.20
76878;DHT22;65843;50.692;12.844;2023-03-07T06:05:17;18.90;58.10
76878;DHT22;65843;50.692;12.844;2023-03-07T06:06:18;18.90;58.10
76878;DHT22;65843;50.692;12.844;2023-03-07T06:07:19;18.90;58.00
76878;DHT22;65843;50.692;12.844;2023-03-07T06:08:20;18.90;58.00
76878;DHT22;65843;50.692;12.844;2023-03-07T06:09:21;18.80;58.00
76878;DHT22;65843;50.692;12.844;2023-03-07T06:10:23;18.80;57.70
76878;DHT22;65843;50.692;12.844;2023-03-07T06:11:24;18.90;56.90
76878;DHT22;65843;50.692;12.844;2023-03-07T06:12:25;18.90;56.70
76878;DHT22;65843;50.692;12.844;2023-03-07T06:13:26;18.90;57.00
76878;DHT22;65843;50.692;12.844;2023-03-07T06:14:29;18.90;57.20
76878;DHT22;65843;50.692;12.844;2023-03-07T06:15:30;19.00;57.30
76878;DHT22;65843;50.692;12.844;2023-03-07T06:16:30;19.00;57.50
76878;DHT22;65843;50.692;12.844;2023-03-07T06:17:31;19.00;57.20
76878;DHT22;65843;50.692;12.844;2023-03-07T06:18:32;19.00;57.10
76878;DHT22;65843;50.692;12.844;2023-03-07T06:19:33;18.90;56.90
76878;DHT22;65843;50.692;12.844;2023-03-07T06:20:34;18.90;56.90
76878;DHT22;65843;50.692;12.844;2023-03-07T06:21:35;18.90;56.60
76878;DHT22;65843;50.692;12.844;2023-03-07T06:22:36;18.90;56.60
76878;DHT22;65843;50.692;12.844;2023-03-07T06:23:40;18.90;56.50
76878;DHT22;65843;50.692;12.844;2023-03-07T06:24:41;18.90;56.10
76878;DHT22;65843;50.692;12.844;2023-03-07T06:25:42;18.90;55.70
76878;DHT22;65843;50.692;12.844;2023-03-07T06:26:43;18.80;55.90
76878;DHT22;65843;50.692;12.844;2023-03-07T06:27:44;18.80;55.50
76878;DHT22;65843;50.692;12.844;2023-03-07T06:28:45;18.80;55.30